sensor_id;sensor_type;location;lat;lon;timestamp;P1;durP1;ratioP1;P2;durP2;ratioP2
11034;SDS011;5571;48.110;-1.706;2022-09-23T00:01:11;5.00;;;3.80;;
11034;SDS011;5571;48.110;-1.706;2022-09-23T00:03:38;5.23;;;3.77;;
11034;SDS011;5571;48.110;-1.706;2022-09-23T00:06:07;5.50;;;3.67;;
11034;SDS011;5571;48.110;-1.706;2022-09-23T00:08:36;6.37;;;3.63;;
11034;SDS011;5571;48.110;-1.706;2022-09-23T00:11:03;7.20;;;3.70;;
11034;SDS011;5571;48.110;-1.706;2022-09-23T00:13:40;8.10;;;3.87;;
11034;SDS011;5571;48.110;-1.706;2022-09-23T00:16:09;5.50;;;3.67;;
11034;SDS011;5571;48.110;-1.706;2022-09-23T00:18:36;8.60;;;3.77;;
11034;SDS011;5571;48.110;-1.706;2022-09-23T00:21:02;5.87;;;3.20;;
11034;SDS011;5571;48.110;-1.706;2022-09-23T00:23:29;9.60;;;4.00;;
11034;SDS011;5571;48.110;-1.706;2022-09-23T00:25:56;7.27;;;3.80;;
11034;SDS011;5571;48.110;-1.706;2022-09-23T00:28:22;12.07;;;4.07;;
11034;SDS011;5571;48.110;-1.706;2022-09-23T00:30:48;4.60;;;3.60;;
11034;SDS011;5571;48.110;-1.706;2022-09-23T00:33:14;6.30;;;3.80;;
11034;SDS011;5571;48.110;-1.706;2022-09-23T00:35:39;8.80;;;4.00;;
11034;SDS011;5571;48.110;-1.706;2022-09-23T00:38:04;6.13;;;3.60;;
11034;SDS011;5571;48.110;-1.706;2022-09-23T00:40:30;7.53;;;3.60;;
11034;SDS011;5571;48.110;-1.706;2022-09-23T00:42:55;10.40;;;3.80;;
11034;SDS011;5571;48.110;-1.706;2022-09-23T00:45:20;5.00;;;3.40;;
11034;SDS011;5571;48.110;-1.706;2022-09-23T00:47:46;8.23;;;3.50;;
11034;SDS011;5571;48.110;-1.706;2022-09-23T00:50:20;5.03;;;3.70;;
11034;SDS011;5571;48.110;-1.706;2022-09-23T00:52:46;6.23;;;3.33;;
11034;SDS011;5571;48.110;-1.706;2022-09-23T00:55:25;7.40;;;3.50;;
11034;SDS011;5571;48.110;-1.706;2022-09-23T00:57:54;5.97;;;3.67;;
11034;SDS011;5571;48.110;-1.706;2022-09-23T01:00:22;6.97;;;3.83;;
11034;SDS011;5571;48.110;-1.706;2022-09-23T01:02:49;5.50;;;3.63;;
11034;SDS011;5571;48.110;-1.706;2022-09-23T01:05:14;8.07;;;3.63;;
11034;SDS011;5571;48.110;-1.706;2022-09-23T01:07:41;8.77;;;3.80;;
11034;SDS011;5571;48.110;-1.706;2022-09-23T01:10:07;4.37;;;3.60;;
11034;SDS011;5571;48.110;-1.706;2022-09-23T01:39:54;5.70;;;3.40;;
11034;SDS011;5571;48.110;-1.706;2022-09-23T01:42:27;8.97;;;3.60;;
11034;SDS011;5571;48.110;-1.706;2022-09-23T01:45:14;8.20;;;3.73;;
11034;SDS011;5571;48.110;-1.706;2022-09-23T01:47:57;7.87;;;3.30;;
11034;SDS011;5571;48.110;-1.706;2022-09-23T01:50:31;7.10;;;3.20;;
11034;SDS011;5571;48.110;-1.706;2022-09-23T01:56:23;11.10;;;3.40;;
11034;SDS011;5571;48.110;-1.706;2022-09-23T02:01:50;6.07;;;3.80;;
11034;SDS011;5571;48.110;-1.706;2022-09-23T02:04:21;5.17;;;3.40;;
11034;SDS011;5571;48.110;-1.706;2022-09-23T02:06:55;5.50;;;3.53;;
11034;SDS011;5571;48.110;-1.706;2022-09-23T02:09:34;4.37;;;3.97;;
11034;SDS011;5571;48.110;-1.706;2022-09-23T02:12:07;8.73;;;3.57;;
11034;SDS011;5571;48.110;-1.706;2022-09-23T02:14:40;5.77;;;3.80;;
11034;SDS011;5571;48.110;-1.706;2022-09-23T02:17:08;4.70;;;3.67;;
11034;SDS011;5571;48.110;-1.706;2022-09-23T02:19:41;7.17;;;3.73;;
11034;SDS011;5571;48.110;-1.706;2022-09-23T02:22:28;4.93;;;3.90;;
11034;SDS011;5571;48.110;-1.706;2022-09-23T02:25:05;6.07;;;4.23;;
11034;SDS011;5571;48.110;-1.706;2022-09-23T02:30:11;8.03;;;4.37;;
11034;SDS011;5571;48.110;-1.706;2022-09-23T02:33:00;8.67;;;4.20;;
11034;SDS011;5571;48.110;-1.706;2022-09-23T02:35:30;6.10;;;4.07;;
11034;SDS011;5571;48.110;-1.706;2022-09-23T02:40:36;6.53;;;4.47;;
11034;SDS011;5571;48.110;-1.706;2022-09-23T02:43:16;8.23;;;4.17;;
11034;SDS011;5571;48.110;-1.706;2022-09-23T02:45:48;8.23;;;4.40;;
11034;SDS011;5571;48.110;-1.706;2022-09-23T02:48:18;11.13;;;4.20;;
11034;SDS011;5571;48.110;-1.706;2022-09-23T02:50:47;7.27;;;4.40;;
11034;SDS011;5571;48.110;-1.706;2022-09-23T02:53:12;6.83;;;4.17;;
11034;SDS011;5571;48.110;-1.706;2022-09-23T02:55:41;7.43;;;4.50;;
11034;SDS011;5571;48.110;-1.706;2022-09-23T02:58:07;8.23;;;4.33;;
11034;SDS011;5571;48.110;-1.706;2022-09-23T03:00:38;7.20;;;4.67;;
11034;SDS011;5571;48.110;-1.706;2022-09-23T03:05:36;6.37;;;4.30;;
11034;SDS011;5571;48.110;-1.706;2022-09-23T03:15:57;6.67;;;4.77;;
11034;SDS011;5571;48.110;-1.706;2022-09-23T03:18:30;6.27;;;4.30;;
11034;SDS011;5571;48.110;-1.706;2022-09-23T03:21:13;10.67;;;4.37;;
11034;SDS011;5571;48.110;-1.706;2022-09-23T03:23:46;5.90;;;4.10;;
11034;SDS011;5571;48.110;-1.706;2022-09-23T03:26:32;7.20;;;4.50;;
11034;SDS011;5571;48.110;-1.706;2022-09-23T03:29:04;8.67;;;4.23;;
11034;SDS011;5571;48.110;-1.706;2022-09-23T03:31:33;6.17;;;4.30;;
11034;SDS011;5571;48.110;-1.706;2022-09-23T03:34:01;7.37;;;4.33;;
11034;SDS011;5571;48.110;-1.706;2022-09-23T03:36:35;7.47;;;4.37;;
11034;SDS011;5571;48.110;-1.706;2022-09-23T03:42:16;9.70;;;4.73;;
11034;SDS011;5571;48.110;-1.706;2022-09-23T03:44:45;10.17;;;5.07;;
11034;SDS011;5571;48.110;-1.706;2022-09-23T03:47:12;9.33;;;4.60;;
11034;SDS011;5571;48.110;-1.706;2022-09-23T03:49:41;7.83;;;4.70;;
11034;SDS011;5571;48.110;-1.706;2022-09-23T03:52:08;9.70;;;4.87;;
11034;SDS011;5571;48.110;-1.706;2022-09-23T03:54:35;13.93;;;4.87;;
11034;SDS011;5571;48.110;-1.706;2022-09-23T03:57:00;6.90;;;4.20;;
11034;SDS011;5571;48.110;-1.706;2022-09-23T03:59:27;6.80;;;4.17;;
11034;SDS011;5571;48.110;-1.706;2022-09-23T04:01:54;5.67;;;4.17;;
11034;SDS011;5571;48.110;-1.706;2022-09-23T04:04:20;10.90;;;4.20;;
11034;SDS011;5571;48.110;-1.706;2022-09-23T04:06:45;7.43;;;4.30;;
11034;SDS011;5571;48.110;-1.706;2022-09-23T04:09:10;7.77;;;4.30;;
11034;SDS011;5571;48.110;-1.706;2022-09-23T04:11:36;8.37;;;4.20;;
11034;SDS011;5571;48.110;-1.706;2022-09-23T04:14:01;4.83;;;3.97;;
11034;SDS011;5571;48.110;-1.706;2022-09-23T04:16:28;7.70;;;4.50;;
11034;SDS011;5571;48.110;-1.706;2022-09-23T04:18:54;9.50;;;3.83;;
11034;SDS011;5571;48.110;-1.706;2022-09-23T04:21:19;9.90;;;4.40;;
11034;SDS011;5571;48.110;-1.706;2022-09-23T04:23:45;7.63;;;4.40;;
11034;SDS011;5571;48.110;-1.706;2022-09-23T04:26:10;6.17;;;4.70;;
11034;SDS011;5571;48.110;-1.706;2022-09-23T04:28:36;8.07;;;4.60;;
11034;SDS011;5571;48.110;-1.706;2022-09-23T04:31:02;8.93;;;4.80;;
11034;SDS011;5571;48.110;-1.706;2022-09-23T04:33:32;10.47;;;4.60;;
11034;SDS011;5571;48.110;-1.706;2022-09-23T04:35:58;10.17;;;4.67;;
11034;SDS011;5571;48.110;-1.706;2022-09-23T04:38:23;5.27;;;4.43;;
11034;SDS011;5571;48.110;-1.706;2022-09-23T04:40:49;6.10;;;4.60;;
11034;SDS011;5571;48.110;-1.706;2022-09-23T04:43:15;5.70;;;5.00;;
11034;SDS011;5571;48.110;-1.706;2022-09-23T04:45:41;7.73;;;4.83;;
11034;SDS011;5571;48.110;-1.706;2022-09-23T04:48:08;8.20;;;4.60;;
11034;SDS011;5571;48.110;-1.706;2022-09-23T04:50:34;6.73;;;4.63;;
11034;SDS011;5571;48.110;-1.706;2022-09-23T04:52:59;14.37;;;4.90;;
11034;SDS011;5571;48.110;-1.706;2022-09-23T04:55:26;7.33;;;4.70;;
11034;SDS011;5571;48.110;-1.706;2022-09-23T04:57:51;8.93;;;5.10;;
11034;SDS011;5571;48.110;-1.706;2022-09-23T05:00:17;7.43;;;5.30;;
11034;SDS011;5571;48.110;-1.706;2022-09-23T05:02:45;9.83;;;5.27;;
11034;SDS011;5571;48.110;-1.706;2022-09-23T05:05:12;7.77;;;5.37;;
11034;SDS011;5571;48.110;-1.706;2022-09-23T05:07:39;7.43;;;5.50;;
11034;SDS011;5571;48.110;-1.706;2022-09-23T05:10:05;8.70;;;5.47;;
11034;SDS011;5571;48.110;-1.706;2022-09-23T05:12:31;32.13;;;6.17;;
11034;SDS011;5571;48.110;-1.706;2022-09-23T05:14:56;39.70;;;7.50;;
11034;SDS011;5571;48.110;-1.706;2022-09-23T05:17:22;15.40;;;5.17;;
11034;SDS011;5571;48.110;-1.706;2022-09-23T05:19:47;14.37;;;5.40;;
11034;SDS011;5571;48.110;-1.706;2022-09-23T05:22:13;15.63;;;5.10;;
11034;SDS011;5571;48.110;-1.706;2022-09-23T05:24:38;17.37;;;5.20;;
11034;SDS011;5571;48.110;-1.706;2022-09-23T05:27:04;19.37;;;5.67;;
11034;SDS011;5571;48.110;-1.706;2022-09-23T05:29:31;18.37;;;5.37;;
11034;SDS011;5571;48.110;-1.706;2022-09-23T05:31:56;20.10;;;4.97;;
11034;SDS011;5571;48.110;-1.706;2022-09-23T05:34:22;17.97;;;5.10;;
11034;SDS011;5571;48.110;-1.706;2022-09-23T05:36:48;16.20;;;5.03;;
11034;SDS011;5571;48.110;-1.706;2022-09-23T05:39:14;17.40;;;5.30;;
11034;SDS011;5571;48.110;-1.706;2022-09-23T05:41:39;17.70;;;5.70;;
11034;SDS011;5571;48.110;-1.706;2022-09-23T05:44:06;18.90;;;5.07;;
11034;SDS011;5571;48.110;-1.706;2022-09-23T05:46:32;10.67;;;4.80;;
11034;SDS011;5571;48.110;-1.706;2022-09-23T05:48:58;12.10;;;5.13;;
11034;SDS011;5571;48.110;-1.706;2022-09-23T05:51:24;15.53;;;5.13;;
11034;SDS011;5571;48.110;-1.706;2022-09-23T05:53:51;6.80;;;4.90;;
11034;SDS011;5571;48.110;-1.706;2022-09-23T05:56:19;15.87;;;4.70;;
11034;SDS011;5571;48.110;-1.706;2022-09-23T05:58:50;6.67;;;4.47;;
11034;SDS011;5571;48.110;-1.706;2022-09-23T06:01:19;9.20;;;4.53;;
11034;SDS011;5571;48.110;-1.706;2022-09-23T06:03:46;8.73;;;4.87;;
11034;SDS011;5571;48.110;-1.706;2022-09-23T06:06:13;15.13;;;4.97;;
11034;SDS011;5571;48.110;-1.706;2022-09-23T06:08:40;10.50;;;5.20;;
11034;SDS011;5571;48.110;-1.706;2022-09-23T06:11:06;7.43;;;4.53;;
11034;SDS011;5571;48.110;-1.706;2022-09-23T06:13:33;5.93;;;4.80;;
11034;SDS011;5571;48.110;-1.706;2022-09-23T06:16:01;9.83;;;4.73;;
11034;SDS011;5571;48.110;-1.706;2022-09-23T06:18:26;7.27;;;4.53;;
11034;SDS011;5571;48.110;-1.706;2022-09-23T06:20:51;12.97;;;4.93;;
11034;SDS011;5571;48.110;-1.706;2022-09-23T06:23:17;11.83;;;4.60;;
11034;SDS011;5571;48.110;-1.706;2022-09-23T06:25:42;9.33;;;5.17;;
11034;SDS011;5571;48.110;-1.706;2022-09-23T06:28:07;8.43;;;4.70;;
11034;SDS011;5571;48.110;-1.706;2022-09-23T06:30:34;13.73;;;5.13;;
11034;SDS011;5571;48.110;-1.706;2022-09-23T06:33:00;8.03;;;5.23;;
11034;SDS011;5571;48.110;-1.706;2022-09-23T06:35:25;11.10;;;5.33;;
11034;SDS011;5571;48.110;-1.706;2022-09-23T06:37:52;7.70;;;5.17;;
11034;SDS011;5571;48.110;-1.706;2022-09-23T06:40:18;8.23;;;4.90;;
11034;SDS011;5571;48.110;-1.706;2022-09-23T06:42:44;20.13;;;8.10;;
11034;SDS011;5571;48.110;-1.706;2022-09-23T06:45:11;21.70;;;11.57;;
11034;SDS011;5571;48.110;-1.706;2022-09-23T06:47:39;14.60;;;8.00;;
11034;SDS011;5571;48.110;-1.706;2022-09-23T06:50:08;11.87;;;6.10;;
11034;SDS011;5571;48.110;-1.706;2022-09-23T06:52:37;12.77;;;6.03;;
11034;SDS011;5571;48.110;-1.706;2022-09-23T06:55:02;11.70;;;5.20;;
11034;SDS011;5571;48.110;-1.706;2022-09-23T06:57:31;11.47;;;4.80;;
11034;SDS011;5571;48.110;-1.706;2022-09-23T06:59:57;18.70;;;5.10;;
11034;SDS011;5571;48.110;-1.706;2022-09-23T07:02:23;12.03;;;5.53;;
11034;SDS011;5571;48.110;-1.706;2022-09-23T07:04:51;18.67;;;5.13;;
11034;SDS011;5571;48.110;-1.706;2022-09-23T07:07:17;12.17;;;5.33;;
11034;SDS011;5571;48.110;-1.706;2022-09-23T07:09:43;9.70;;;5.17;;
11034;SDS011;5571;48.110;-1.706;2022-09-23T07:12:10;15.67;;;5.30;;
11034;SDS011;5571;48.110;-1.706;2022-09-23T07:14:36;9.43;;;4.70;;
11034;SDS011;5571;48.110;-1.706;2022-09-23T07:17:01;12.60;;;5.07;;
11034;SDS011;5571;48.110;-1.706;2022-09-23T07:19:27;11.10;;;4.80;;
11034;SDS011;5571;48.110;-1.706;2022-09-23T07:21:53;14.93;;;4.80;;
11034;SDS011;5571;48.110;-1.706;2022-09-23T07:24:18;11.20;;;4.80;;
11034;SDS011;5571;48.110;-1.706;2022-09-23T07:26:43;12.77;;;5.27;;
11034;SDS011;5571;48.110;-1.706;2022-09-23T07:29:10;18.93;;;5.93;;
11034;SDS011;5571;48.110;-1.706;2022-09-23T07:31:37;12.33;;;4.93;;
11034;SDS011;5571;48.110;-1.706;2022-09-23T07:34:02;12.47;;;5.40;;
11034;SDS011;5571;48.110;-1.706;2022-09-23T07:36:28;14.23;;;5.77;;
11034;SDS011;5571;48.110;-1.706;2022-09-23T07:38:56;20.53;;;5.57;;
11034;SDS011;5571;48.110;-1.706;2022-09-23T07:41:27;10.83;;;5.97;;
11034;SDS011;5571;48.110;-1.706;2022-09-23T07:43:54;10.17;;;5.77;;
11034;SDS011;5571;48.110;-1.706;2022-09-23T07:46:23;12.57;;;5.40;;
11034;SDS011;5571;48.110;-1.706;2022-09-23T07:48:50;11.50;;;5.77;;
11034;SDS011;5571;48.110;-1.706;2022-09-23T07:51:24;16.53;;;5.70;;
11034;SDS011;5571;48.110;-1.706;2022-09-23T07:53:53;10.67;;;5.40;;
11034;SDS011;5571;48.110;-1.706;2022-09-23T07:56:20;8.30;;;5.50;;
11034;SDS011;5571;48.110;-1.706;2022-09-23T07:58:48;15.47;;;5.63;;
11034;SDS011;5571;48.110;-1.706;2022-09-23T08:01:24;14.23;;;6.13;;
11034;SDS011;5571;48.110;-1.706;2022-09-23T08:03:50;11.90;;;5.70;;
11034;SDS011;5571;48.110;-1.706;2022-09-23T08:06:15;18.83;;;6.00;;
11034;SDS011;5571;48.110;-1.706;2022-09-23T08:08:41;14.40;;;6.03;;
11034;SDS011;5571;48.110;-1.706;2022-09-23T08:11:10;20.23;;;6.43;;
11034;SDS011;5571;48.110;-1.706;2022-09-23T08:13:37;18.27;;;6.77;;
11034;SDS011;5571;48.110;-1.706;2022-09-23T08:16:02;19.47;;;7.03;;
11034;SDS011;5571;48.110;-1.706;2022-09-23T08:18:28;10.43;;;6.67;;
11034;SDS011;5571;48.110;-1.706;2022-09-23T08:20:54;11.57;;;6.60;;
11034;SDS011;5571;48.110;-1.706;2022-09-23T08:23:19;19.47;;;7.10;;
11034;SDS011;5571;48.110;-1.706;2022-09-23T08:25:45;13.27;;;6.87;;
11034;SDS011;5571;48.110;-1.706;2022-09-23T08:28:12;15.47;;;7.00;;
11034;SDS011;5571;48.110;-1.706;2022-09-23T08:30:40;10.67;;;6.83;;
11034;SDS011;5571;48.110;-1.706;2022-09-23T08:33:06;23.30;;;7.00;;
11034;SDS011;5571;48.110;-1.706;2022-09-23T08:35:32;17.60;;;7.13;;
11034;SDS011;5571;48.110;-1.706;2022-09-23T08:37:57;12.23;;;6.10;;
11034;SDS011;5571;48.110;-1.706;2022-09-23T08:40:22;16.63;;;6.80;;
11034;SDS011;5571;48.110;-1.706;2022-09-23T08:42:48;23.90;;;7.87;;
11034;SDS011;5571;48.110;-1.706;2022-09-23T08:45:18;16.20;;;7.60;;
11034;SDS011;5571;48.110;-1.706;2022-09-23T08:47:55;18.17;;;8.07;;
11034;SDS011;5571;48.110;-1.706;2022-09-23T08:50:31;23.60;;;7.73;;
11034;SDS011;5571;48.110;-1.706;2022-09-23T08:53:02;19.10;;;7.00;;
11034;SDS011;5571;48.110;-1.706;2022-09-23T08:55:46;22.23;;;7.43;;
11034;SDS011;5571;48.110;-1.706;2022-09-23T09:04:10;18.17;;;6.60;;
11034;SDS011;5571;48.110;-1.706;2022-09-23T09:06:41;11.83;;;6.47;;
11034;SDS011;5571;48.110;-1.706;2022-09-23T09:09:36;18.87;;;7.30;;
11034;SDS011;5571;48.110;-1.706;2022-09-23T09:14:35;23.43;;;7.27;;
11034;SDS011;5571;48.110;-1.706;2022-09-23T09:17:12;18.03;;;7.77;;
11034;SDS011;5571;48.110;-1.706;2022-09-23T09:22:41;16.27;;;8.30;;
11034;SDS011;5571;48.110;-1.706;2022-09-23T09:25:13;18.87;;;8.73;;
11034;SDS011;5571;48.110;-1.706;2022-09-23T09:27:46;20.30;;;8.40;;
11034;SDS011;5571;48.110;-1.706;2022-09-23T09:30:12;22.10;;;7.73;;
11034;SDS011;5571;48.110;-1.706;2022-09-23T09:32:58;27.70;;;8.03;;
11034;SDS011;5571;48.110;-1.706;2022-09-23T09:35:32;16.37;;;7.77;;
11034;SDS011;5571;48.110;-1.706;2022-09-23T09:38:01;24.57;;;7.50;;
11034;SDS011;5571;48.110;-1.706;2022-09-23T09:40:27;16.90;;;7.93;;
11034;SDS011;5571;48.110;-1.706;2022-09-23T09:42:53;20.17;;;7.53;;
11034;SDS011;5571;48.110;-1.706;2022-09-23T09:50:40;16.67;;;8.00;;
11034;SDS011;5571;48.110;-1.706;2022-09-23T09:55:40;22.57;;;8.30;;
11034;SDS011;5571;48.110;-1.706;2022-09-23T09:58:09;15.77;;;8.20;;
11034;SDS011;5571;48.110;-1.706;2022-09-23T10:00:41;19.83;;;8.43;;
11034;SDS011;5571;48.110;-1.706;2022-09-23T10:08:31;14.20;;;8.07;;
11034;SDS011;5571;48.110;-1.706;2022-09-23T10:11:04;17.27;;;8.53;;
11034;SDS011;5571;48.110;-1.706;2022-09-23T10:13:36;21.37;;;9.00;;
11034;SDS011;5571;48.110;-1.706;2022-09-23T10:16:02;13.27;;;7.93;;
11034;SDS011;5571;48.110;-1.706;2022-09-23T10:21:13;14.03;;;8.03;;
11034;SDS011;5571;48.110;-1.706;2022-09-23T10:23:44;17.63;;;8.63;;
11034;SDS011;5571;48.110;-1.706;2022-09-23T10:26:12;24.37;;;8.83;;
11034;SDS011;5571;48.110;-1.706;2022-09-23T10:28:47;19.10;;;9.40;;
11034;SDS011;5571;48.110;-1.706;2022-09-23T10:33:54;20.93;;;8.90;;
11034;SDS011;5571;48.110;-1.706;2022-09-23T10:36:23;22.70;;;7.73;;
11034;SDS011;5571;48.110;-1.706;2022-09-23T10:38:51;27.17;;;7.97;;
11034;SDS011;5571;48.110;-1.706;2022-09-23T10:41:41;29.10;;;8.93;;
11034;SDS011;5571;48.110;-1.706;2022-09-23T10:55:51;16.67;;;8.03;;
11034;SDS011;5571;48.110;-1.706;2022-09-23T11:04:03;22.73;;;8.60;;
11034;SDS011;5571;48.110;-1.706;2022-09-23T11:14:38;18.67;;;8.70;;
11034;SDS011;5571;48.110;-1.706;2022-09-23T11:20:01;25.23;;;9.20;;
11034;SDS011;5571;48.110;-1.706;2022-09-23T11:22:39;21.17;;;8.37;;
11034;SDS011;5571;48.110;-1.706;2022-09-23T11:34:07;19.73;;;7.17;;
11034;SDS011;5571;48.110;-1.706;2022-09-23T11:36:46;18.20;;;7.70;;
11034;SDS011;5571;48.110;-1.706;2022-09-23T11:39:16;18.23;;;8.10;;
11034;SDS011;5571;48.110;-1.706;2022-09-23T11:41:48;14.83;;;7.33;;
11034;SDS011;5571;48.110;-1.706;2022-09-23T11:44:28;21.63;;;9.32;;
11034;SDS011;5571;48.110;-1.706;2022-09-23T11:46:58;17.17;;;7.87;;
11034;SDS011;5571;48.110;-1.706;2022-09-23T11:52:28;15.43;;;8.70;;
11034;SDS011;5571;48.110;-1.706;2022-09-23T11:57:32;19.57;;;10.60;;
11034;SDS011;5571;48.110;-1.706;2022-09-23T12:00:05;14.50;;;9.40;;
11034;SDS011;5571;48.110;-1.706;2022-09-23T12:05:23;24.00;;;13.40;;
11034;SDS011;5571;48.110;-1.706;2022-09-23T12:11:21;16.10;;;9.40;;
11034;SDS011;5571;48.110;-1.706;2022-09-23T12:27:59;19.30;;;9.43;;
11034;SDS011;5571;48.110;-1.706;2022-09-23T12:30:29;20.60;;;9.57;;
11034;SDS011;5571;48.110;-1.706;2022-09-23T12:33:08;11.67;;;7.57;;
11034;SDS011;5571;48.110;-1.706;2022-09-23T12:35:49;18.20;;;8.10;;
11034;SDS011;5571;48.110;-1.706;2022-09-23T12:38:24;13.37;;;9.43;;
11034;SDS011;5571;48.110;-1.706;2022-09-23T12:40:56;17.00;;;9.38;;
11034;SDS011;5571;48.110;-1.706;2022-09-23T12:43:31;14.80;;;9.63;;
11034;SDS011;5571;48.110;-1.706;2022-09-23T12:46:21;15.07;;;8.73;;
11034;SDS011;5571;48.110;-1.706;2022-09-23T12:51:21;10.48;;;7.03;;
11034;SDS011;5571;48.110;-1.706;2022-09-23T12:53:52;13.27;;;7.70;;
11034;SDS011;5571;48.110;-1.706;2022-09-23T12:56:25;16.48;;;8.10;;
11034;SDS011;5571;48.110;-1.706;2022-09-23T12:59:22;14.52;;;8.88;;
11034;SDS011;5571;48.110;-1.706;2022-09-23T13:01:51;12.52;;;7.40;;
11034;SDS011;5571;48.110;-1.706;2022-09-23T13:07:25;15.02;;;8.25;;
11034;SDS011;5571;48.110;-1.706;2022-09-23T13:10:04;11.63;;;8.38;;
11034;SDS011;5571;48.110;-1.706;2022-09-23T13:12:37;12.13;;;7.78;;
11034;SDS011;5571;48.110;-1.706;2022-09-23T13:15:11;11.27;;;7.50;;
11034;SDS011;5571;48.110;-1.706;2022-09-23T13:17:40;12.35;;;7.90;;
11034;SDS011;5571;48.110;-1.706;2022-09-23T13:25:19;16.35;;;8.35;;
11034;SDS011;5571;48.110;-1.706;2022-09-23T13:27:49;12.95;;;7.38;;
11034;SDS011;5571;48.110;-1.706;2022-09-23T13:30:18;12.02;;;7.13;;
11034;SDS011;5571;48.110;-1.706;2022-09-23T13:32:49;14.02;;;7.68;;
11034;SDS011;5571;48.110;-1.706;2022-09-23T13:35:21;12.57;;;7.40;;
11034;SDS011;5571;48.110;-1.706;2022-09-23T13:37:53;14.68;;;7.13;;
11034;SDS011;5571;48.110;-1.706;2022-09-23T13:40:20;12.45;;;8.07;;
11034;SDS011;5571;48.110;-1.706;2022-09-23T13:43:01;13.50;;;7.40;;
11034;SDS011;5571;48.110;-1.706;2022-09-23T13:45:29;13.13;;;6.85;;
11034;SDS011;5571;48.110;-1.706;2022-09-23T13:48:00;15.25;;;6.82;;
11034;SDS011;5571;48.110;-1.706;2022-09-23T13:50:31;22.95;;;6.63;;
11034;SDS011;5571;48.110;-1.706;2022-09-23T13:53:00;9.93;;;5.97;;
11034;SDS011;5571;48.110;-1.706;2022-09-23T13:55:31;14.18;;;6.20;;
11034;SDS011;5571;48.110;-1.706;2022-09-23T13:58:22;10.75;;;6.80;;
11034;SDS011;5571;48.110;-1.706;2022-09-23T14:00:48;18.33;;;7.32;;
11034;SDS011;5571;48.110;-1.706;2022-09-23T14:03:25;20.77;;;6.90;;
11034;SDS011;5571;48.110;-1.706;2022-09-23T14:05:55;14.35;;;7.00;;
11034;SDS011;5571;48.110;-1.706;2022-09-23T14:08:23;15.52;;;6.65;;
11034;SDS011;5571;48.110;-1.706;2022-09-23T14:10:49;13.20;;;6.95;;
11034;SDS011;5571;48.110;-1.706;2022-09-23T14:13:16;8.30;;;6.43;;
11034;SDS011;5571;48.110;-1.706;2022-09-23T14:15:44;11.48;;;6.80;;
11034;SDS011;5571;48.110;-1.706;2022-09-23T14:18:14;10.40;;;7.07;;
11034;SDS011;5571;48.110;-1.706;2022-09-23T14:20:46;8.57;;;6.50;;
11034;SDS011;5571;48.110;-1.706;2022-09-23T14:23:14;11.65;;;6.35;;
11034;SDS011;5571;48.110;-1.706;2022-09-23T14:25:43;12.48;;;6.95;;
11034;SDS011;5571;48.110;-1.706;2022-09-23T14:28:14;12.88;;;7.25;;
11034;SDS011;5571;48.110;-1.706;2022-09-23T14:30:41;14.02;;;6.90;;
11034;SDS011;5571;48.110;-1.706;2022-09-23T14:33:09;10.10;;;6.10;;
11034;SDS011;5571;48.110;-1.706;2022-09-23T14:35:39;15.55;;;6.60;;
11034;SDS011;5571;48.110;-1.706;2022-09-23T14:38:08;12.15;;;7.03;;
11034;SDS011;5571;48.110;-1.706;2022-09-23T14:40:53;9.77;;;6.47;;
11034;SDS011;5571;48.110;-1.706;2022-09-23T14:43:44;8.70;;;6.40;;
11034;SDS011;5571;48.110;-1.706;2022-09-23T14:46:31;10.45;;;6.10;;
11034;SDS011;5571;48.110;-1.706;2022-09-23T14:51:47;11.43;;;6.07;;
11034;SDS011;5571;48.110;-1.706;2022-09-23T14:54:21;11.82;;;6.05;;
11034;SDS011;5571;48.110;-1.706;2022-09-23T14:56:48;11.15;;;6.03;;
11034;SDS011;5571;48.110;-1.706;2022-09-23T15:05:22;10.85;;;5.93;;
11034;SDS011;5571;48.110;-1.706;2022-09-23T15:08:03;10.02;;;5.57;;
11034;SDS011;5571;48.110;-1.706;2022-09-23T15:10:30;7.60;;;5.10;;
11034;SDS011;5571;48.110;-1.706;2022-09-23T15:13:31;10.32;;;5.22;;
11034;SDS011;5571;48.110;-1.706;2022-09-23T15:15:53;11.93;;;5.32;;
11034;SDS011;5571;48.110;-1.706;2022-09-23T15:18:29;8.95;;;4.82;;
11034;SDS011;5571;48.110;-1.706;2022-09-23T15:26:09;6.00;;;4.90;;
11034;SDS011;5571;48.110;-1.706;2022-09-23T15:28:35;10.95;;;5.20;;
11034;SDS011;5571;48.110;-1.706;2022-09-23T15:31:01;7.72;;;5.18;;
11034;SDS011;5571;48.110;-1.706;2022-09-23T15:33:27;8.57;;;4.72;;
11034;SDS011;5571;48.110;-1.706;2022-09-23T15:35:53;8.35;;;4.57;;
11034;SDS011;5571;48.110;-1.706;2022-09-23T15:38:19;8.15;;;5.15;;
11034;SDS011;5571;48.110;-1.706;2022-09-23T15:40:46;6.78;;;4.85;;
11034;SDS011;5571;48.110;-1.706;2022-09-23T15:43:18;7.32;;;4.70;;
11034;SDS011;5571;48.110;-1.706;2022-09-23T15:45:50;12.25;;;4.93;;
11034;SDS011;5571;48.110;-1.706;2022-09-23T15:48:18;9.75;;;4.47;;
11034;SDS011;5571;48.110;-1.706;2022-09-23T15:50:46;10.77;;;4.85;;
11034;SDS011;5571;48.110;-1.706;2022-09-23T15:53:18;8.00;;;4.72;;
11034;SDS011;5571;48.110;-1.706;2022-09-23T15:55:46;6.93;;;4.93;;
11034;SDS011;5571;48.110;-1.706;2022-09-23T15:58:14;6.13;;;4.80;;
11034;SDS011;5571;48.110;-1.706;2022-09-23T16:00:39;7.22;;;4.72;;
11034;SDS011;5571;48.110;-1.706;2022-09-23T16:03:05;7.47;;;5.35;;
11034;SDS011;5571;48.110;-1.706;2022-09-23T16:05:32;8.32;;;5.47;;
11034;SDS011;5571;48.110;-1.706;2022-09-23T16:08:02;10.82;;;5.28;;
11034;SDS011;5571;48.110;-1.706;2022-09-23T16:10:31;7.38;;;5.22;;
11034;SDS011;5571;48.110;-1.706;2022-09-23T16:12:58;8.67;;;5.07;;
11034;SDS011;5571;48.110;-1.706;2022-09-23T16:15:27;6.65;;;5.05;;
11034;SDS011;5571;48.110;-1.706;2022-09-23T16:17:56;6.75;;;4.57;;
11034;SDS011;5571;48.110;-1.706;2022-09-23T16:20:22;7.80;;;4.10;;
11034;SDS011;5571;48.110;-1.706;2022-09-23T16:22:57;6.43;;;4.10;;
11034;SDS011;5571;48.110;-1.706;2022-09-23T16:25:25;9.17;;;3.87;;
11034;SDS011;5571;48.110;-1.706;2022-09-23T16:27:52;5.00;;;4.13;;
11034;SDS011;5571;48.110;-1.706;2022-09-23T16:30:20;7.47;;;3.47;;
11034;SDS011;5571;48.110;-1.706;2022-09-23T16:32:46;11.30;;;3.83;;
11034;SDS011;5571;48.110;-1.706;2022-09-23T16:35:12;5.32;;;3.85;;
11034;SDS011;5571;48.110;-1.706;2022-09-23T16:37:37;5.83;;;3.20;;
11034;SDS011;5571;48.110;-1.706;2022-09-23T16:40:02;9.03;;;3.00;;
11034;SDS011;5571;48.110;-1.706;2022-09-23T16:42:28;7.33;;;3.03;;
11034;SDS011;5571;48.110;-1.706;2022-09-23T16:44:53;6.50;;;3.33;;
11034;SDS011;5571;48.110;-1.706;2022-09-23T16:47:19;7.57;;;3.33;;
11034;SDS011;5571;48.110;-1.706;2022-09-23T16:49:44;4.80;;;3.00;;
11034;SDS011;5571;48.110;-1.706;2022-09-23T16:52:10;4.20;;;2.97;;
11034;SDS011;5571;48.110;-1.706;2022-09-23T16:54:40;4.97;;;3.30;;
11034;SDS011;5571;48.110;-1.706;2022-09-23T16:57:07;7.33;;;3.50;;
11034;SDS011;5571;48.110;-1.706;2022-09-23T16:59:33;6.03;;;3.23;;
11034;SDS011;5571;48.110;-1.706;2022-09-23T17:02:17;5.43;;;3.45;;
11034;SDS011;5571;48.110;-1.706;2022-09-23T17:05:01;5.43;;;3.13;;
11034;SDS011;5571;48.110;-1.706;2022-09-23T17:07:27;3.73;;;3.27;;
11034;SDS011;5571;48.110;-1.706;2022-09-23T17:09:53;7.27;;;3.60;;
11034;SDS011;5571;48.110;-1.706;2022-09-23T17:12:20;5.73;;;3.57;;
11034;SDS011;5571;48.110;-1.706;2022-09-23T17:14:51;8.10;;;3.90;;
11034;SDS011;5571;48.110;-1.706;2022-09-23T17:17:17;6.55;;;3.92;;
11034;SDS011;5571;48.110;-1.706;2022-09-23T17:19:42;4.03;;;3.53;;
11034;SDS011;5571;48.110;-1.706;2022-09-23T17:22:08;5.40;;;3.50;;
11034;SDS011;5571;48.110;-1.706;2022-09-23T17:24:33;4.67;;;3.40;;
11034;SDS011;5571;48.110;-1.706;2022-09-23T17:26:59;3.70;;;3.40;;
11034;SDS011;5571;48.110;-1.706;2022-09-23T17:29:24;7.10;;;3.47;;
11034;SDS011;5571;48.110;-1.706;2022-09-23T17:31:50;12.20;;;3.63;;
11034;SDS011;5571;48.110;-1.706;2022-09-23T17:34:16;8.00;;;3.60;;
11034;SDS011;5571;48.110;-1.706;2022-09-23T17:36:43;7.73;;;3.70;;
11034;SDS011;5571;48.110;-1.706;2022-09-23T17:39:08;6.77;;;3.83;;
11034;SDS011;5571;48.110;-1.706;2022-09-23T17:41:34;5.77;;;4.50;;
11034;SDS011;5571;48.110;-1.706;2022-09-23T17:43:59;7.63;;;4.37;;